Terminal Aerodrome Forecast
Issued by NWS Memphis, TN

Home | Current Version | Previous Version | Text Only | Print | Product List | Glossary On
Versions: 1 2 3 4 5 6 7 8 9 10 11 12 13 14 15 16 17 18 19 20 21 22 23 24
413
FTUS44 KMEG 082324
TAFMEM
TAF
KMEM 082324Z 0900/0924 30016G24KT P6SM OVC050
     FM090600 31012G18KT P6SM OVC040
     FM091400 31016G24KT P6SM BKN045
     FM092300 31010G16KT P6SM SCT050=

USA.gov is the U.S. government's official web portal to all federal, state and local government web resources and services.